Cochran, Georgia
Current Conditions -  °F | °C
As of 12:15 AM on Tuesday 21 Oct 2014 (Local Time) from KEZM Reporting Station
Haze Haze  
Wind Chill: 13°   Ceiling: 700
Heat Index: 13°   Visibility: 1.2mi
Dew Point: 13°   Wind: 0mph
Humidity: 100%   Direction: NA
Pressure: 30.03"   Gusts: NA
Location:  32.39°N, 83.35°W
Report Text: KEZM 210415Z AUTO 00000KT 1 1/4SM BR VV007 13/13 A3003 RMK AO2 T01280128
Loading
Personal Weather Stations






























Interactive Weather Map
Tropical Storm Tracking
New forecast layout! Learn more

10-Day Weather Forecast

Advertisements
Track Severe Weather on mobile